METAR Data
IDs: Format: Raw Decoded Include TAF

Data at: 0540 UTC 24 Sep 2020

Region: TOP
KATL 240452Z 09004KT 10SM SCT110 BKN150 OVC200 20/16 A3003 RMK AO2 SLP162 T02000156 402500161

KBOS 240454Z 29010KT 10SM CLR 18/12 A2986 RMK AO2 SLP109 T01780122 402670128

KBWI 240454Z 25004KT 10SM BKN250 17/11 A2996 RMK AO2 SLP144 T01670111 402720106

KCLE 240451Z AUTO 21004KT 10SM CLR 17/13 A2998 RMK AO2 SLP164 T01670133 402500106

KCLT 240452Z 16003KT 10SM FEW130 BKN220 17/14 A3004 RMK AO2 SLP165 T01670139 402560094

KCVG 240452Z 00000KT 10SM OVC160 16/13 A3005 RMK AO2 SLP168 T01610128 402390094 $

KDCA 240452Z 20005KT 10SM OVC250 17/13 A2999 RMK AO2 SLP155 T01720128 402720128

KDEN 240453Z 25006KT 10SM SCT120 BKN220 21/01 A3017 RMK AO2 SLP132 T02060006

KDFW 240453Z 02007KT 10SM FEW010 OVC027 21/17 A2994 RMK AO2 SLP132 T02060172

KDTW 240453Z 26003KT 9SM BKN250 17/13 A2998 RMK AO2 SLP149 T01670128 402670106

KEWR 240451Z 30007KT 10SM CLR 19/11 A2992 RMK AO2 SLP131 T01890111 402830128

KFLL 240453Z 11010KT 10SM FEW031 BKN070 27/22 A2996 RMK AO2 SLP145 T02720217 403060261

KIAD 240452Z 00000KT 10SM BKN250 14/12 A2999 RMK AO2 SLP154 T01390117 402720072 $

KIAH 240453Z 31007KT 10SM BKN015 OVC022 22/19 A2988 RMK AO2 RAB0355E05 SLP119 P0000 T02220194

KJFK 240451Z 29005KT 10SM FEW250 18/12 A2993 RMK AO2 SLP134 T01830122 402780133 $

KLAS 240456Z 29006KT 10SM CLR 29/03 A2996 RMK AO2 SLP120 T02940033

KLAX 240453Z 20004KT 10SM FEW008 19/17 A2996 RMK AO2 SLP142 T01940172

KLGA 240451Z 30005KT 10SM CLR 22/12 A2992 RMK AO2 SLP130 T02170117 402720167 $

KMCO 240453Z 10005KT 10SM CLR 23/20 A3000 RMK AO2 SLP156 T02330200 403060206

KMDW 240453Z 20003KT 10SM BKN250 18/11 A2998 RMK AO2 SLP144 T01780111

KMEM 240454Z 09009KT 10SM BKN012 OVC055 16/13 A2997 RMK AO2 SLP147 T01560133

KMIA 240453Z 08014KT 10SM SCT026 BKN031 BKN040 BKN250 27/22 A2997 RMK AO2 SLP148 T02720222 403110256

KMSP 240453Z 20004KT 10SM SCT130 BKN250 22/13 A2985 RMK AO2 SLP105 T02220133

KORD 240451Z 22004KT 10SM BKN250 18/12 A2997 RMK AO2 SLP146 T01780122

KPDX 240453Z 19013KT 9SM -RA SCT018 BKN035 OVC075 16/15 A2989 RMK AO2 RAB23 SLP120 P0005 T01610150 $

KPHL 240454Z 26004KT 10SM SCT280 18/14 A2995 RMK AO2 SLP140 T01780139 402720122

KPHX 240451Z 24003KT 10SM FEW120 32/07 A2986 RMK AO2 SLP090 T03220067

KPIT 240451Z 00000KT 10SM FEW100 OVC250 16/12 A3002 RMK AO2 SLP167 T01560117 402560089

KSAN 240451Z 30003KT 10SM FEW008 FEW250 22/18 A2997 RMK AO2 SLP149 T02170178

KSEA 240455Z 20011G16KT 9SM -RA FEW015 BKN023 OVC055 16/14 A2978 RMK AO2 RAB00 SLP088 P0002 T01560144

KSFO 240456Z 31005KT 10SM BKN006 18/16 A3007 RMK AO2 SLP182 T01780156

KSLC 240454Z 13007KT 10SM FEW230 22/02 A3009 RMK AO2 SLP138 FU ALFT T02170022

KSTL 240451Z 20005KT 10SM SCT210 17/13 A3003 RMK AO2 SLP161 T01720128

KTPA 240453Z 11009KT 10SM CLR 26/19 A2997 RMK AO2 SLP148 T02560189 403170217